Time;durP1;ratioP1;P1;durP2;ratioP2;P2;SDS_P1;SDS_P2;PMS_P1;PMS_P2;Temp;Humidity;BMP_temperature;BMP_pressure;BME280_temperature;BME280_humidity;BME280_pressure;Samples;Min_cycle;Max_cycle;Signal;HPM_P1;HPM_P2
2024/01/11 00:00:33;;;;;;;14.52;6.80;;;-4.30;99.90;;;;;;4890732;29;20028;-65
2024/01/11 00:02:59;;;;;;;15.98;6.70;;;-4.30;99.90;;;;;;4889654;29;20040;-65
2024/01/11 00:05:24;;;;;;;16.00;5.38;;;-4.30;99.90;;;;;;4877315;29;20115;-65
2024/01/11 00:07:50;;;;;;;12.70;6.22;;;-4.30;99.90;;;;;;4889118;29;20029;-64
2024/01/11 00:10:17;;;;;;;13.45;5.43;;;-4.30;99.90;;;;;;4882894;29;20575;-64
2024/01/11 00:12:42;;;;;;;21.83;7.15;;;-4.30;99.90;;;;;;4881967;29;20036;-64
2024/01/11 00:15:08;;;;;;;17.35;8.00;;;-4.30;99.90;;;;;;4890826;29;20477;-64
2024/01/11 00:17:36;;;;;;;16.80;4.93;;;-4.30;99.90;;;;;;4882983;29;20040;-64
2024/01/11 00:20:02;;;;;;;21.27;7.03;;;-4.30;99.90;;;;;;4888849;29;20028;-65
2024/01/11 00:22:27;;;;;;;9.77;6.53;;;-4.30;99.90;;;;;;4891570;29;20021;-64
2024/01/11 00:24:53;;;;;;;16.83;6.07;;;-4.30;99.90;;;;;;4893905;29;20116;-64
2024/01/11 00:27:19;;;;;;;16.45;6.55;;;-4.30;99.90;;;;;;4897035;29;20037;-64
2024/01/11 00:29:45;;;;;;;14.70;5.43;;;-4.40;99.90;;;;;;4892725;29;20029;-64
2024/01/11 00:32:10;;;;;;;11.95;7.30;;;-4.40;99.90;;;;;;4878391;29;20032;-65
2024/01/11 00:34:36;;;;;;;10.35;5.05;;;-4.40;99.90;;;;;;4891839;29;20028;-64
2024/01/11 00:37:02;;;;;;;11.32;6.72;;;-4.40;99.90;;;;;;4894936;29;20564;-64
2024/01/11 00:39:31;;;;;;;12.57;6.75;;;-4.40;99.90;;;;;;4893451;29;20100;-64
2024/01/11 00:41:56;;;;;;;10.38;5.68;;;-4.40;99.90;;;;;;4894531;29;20031;-65
2024/01/11 00:44:22;;;;;;;10.88;6.10;;;-4.40;99.90;;;;;;4894904;29;20021;-65
2024/01/11 00:46:48;;;;;;;8.00;5.07;;;-4.40;99.90;;;;;;4892983;29;20025;-64
2024/01/11 00:49:14;;;;;;;7.82;5.13;;;-4.40;99.90;;;;;;4889016;29;20504;-64
2024/01/11 00:51:40;;;;;;;13.63;6.30;;;-4.50;99.90;;;;;;4894909;29;20103;-64
2024/01/11 00:54:06;;;;;;;13.75;3.75;;;-4.40;99.90;;;;;;4895384;29;20029;-63
2024/01/11 00:56:34;;;;;;;9.70;5.25;;;-4.40;99.90;;;;;;4892498;29;20028;-64
2024/01/11 00:59:01;;;;;;;12.52;5.78;;;-4.50;99.90;;;;;;4882080;29;20478;-63
2024/01/11 01:01:26;;;;;;;18.75;6.80;;;-4.50;99.90;;;;;;4891833;29;20056;-64
2024/01/11 01:03:52;;;;;;;14.02;5.18;;;-4.50;99.90;;;;;;4879154;29;20402;-64
2024/01/11 01:06:18;;;;;;;15.40;5.22;;;-4.60;99.90;;;;;;4889952;29;20029;-64
2024/01/11 01:08:44;;;;;;;7.00;6.25;;;-4.60;99.90;;;;;;4879449;29;20033;-65
2024/01/11 01:11:09;;;;;;;8.18;5.38;;;-4.60;99.90;;;;;;4879593;29;20455;-64
2024/01/11 01:13:35;;;;;;;15.73;4.93;;;-4.50;99.90;;;;;;4879151;29;20025;-64
2024/01/11 01:16:01;;;;;;;11.05;7.35;;;-4.60;99.90;;;;;;4888426;29;20108;-64
2024/01/11 01:18:27;;;;;;;10.55;3.67;;;-4.50;99.90;;;;;;4877873;29;20418;-64
2024/01/11 01:20:53;;;;;;;9.48;6.82;;;-4.50;99.90;;;;;;4893658;29;20111;-64
2024/01/11 01:23:19;;;;;;;6.28;3.63;;;-4.50;99.90;;;;;;4888867;29;20108;-64
2024/01/11 01:25:45;;;;;;;9.80;4.78;;;-4.60;99.90;;;;;;4894349;29;20025;-64
2024/01/11 01:28:10;;;;;;;10.60;5.35;;;-4.60;99.90;;;;;;4892810;29;20061;-64
2024/01/11 01:30:36;;;;;;;6.93;4.32;;;-4.50;99.90;;;;;;4889043;29;20513;-64
2024/01/11 01:33:02;;;;;;;7.88;4.43;;;-4.50;99.90;;;;;;4893270;29;20490;-64
2024/01/11 01:35:28;;;;;;;15.88;4.75;;;-4.50;99.90;;;;;;4890789;29;20121;-64
2024/01/11 01:37:54;;;;;;;8.07;5.03;;;-4.60;99.90;;;;;;4903196;29;20580;-64
2024/01/11 01:40:20;;;;;;;6.20;4.55;;;-4.60;99.90;;;;;;4878198;29;20037;-65
2024/01/11 01:42:46;;;;;;;14.30;6.53;;;-4.60;99.90;;;;;;4888038;29;20481;-64
2024/01/11 01:45:16;;;;;;;14.27;7.60;;;-4.60;99.90;;;;;;4878338;29;20569;-65
2024/01/11 01:47:43;;;;;;;12.38;6.10;;;-4.60;99.90;;;;;;4878751;29;20055;-65
2024/01/11 01:50:11;;;;;;;8.98;5.60;;;-4.50;99.90;;;;;;4879185;29;20029;-64
2024/01/11 01:52:41;;;;;;;14.75;6.90;;;-4.50;99.90;;;;;;4877333;29;20037;-64
2024/01/11 01:55:09;;;;;;;8.00;4.95;;;-4.50;99.90;;;;;;4891138;29;20028;-64
2024/01/11 01:57:36;;;;;;;18.98;7.72;;;-4.40;99.90;;;;;;4893992;29;20120;-65
2024/01/11 02:00:03;;;;;;;11.55;5.72;;;-4.50;99.90;;;;;;4890383;29;20077;-65
2024/01/11 02:02:31;;;;;;;8.13;4.55;;;-4.50;99.90;;;;;;4893351;29;20107;-65
2024/01/11 02:04:58;;;;;;;12.52;7.97;;;-4.40;99.90;;;;;;4886034;29;20505;-65
2024/01/11 02:07:24;;;;;;;9.98;6.10;;;-4.40;99.90;;;;;;4884231;29;20389;-64
2024/01/11 02:09:51;;;;;;;10.55;5.95;;;-4.40;99.90;;;;;;4888623;29;20061;-65
2024/01/11 02:12:17;;;;;;;9.35;5.03;;;-4.50;99.90;;;;;;4892457;29;20486;-65
2024/01/11 02:14:44;;;;;;;11.23;5.13;;;-4.50;99.90;;;;;;4891375;29;20036;-66
2024/01/11 02:17:09;;;;;;;8.95;6.28;;;-4.50;99.90;;;;;;4893150;29;20044;-65
2024/01/11 02:19:35;;;;;;;14.13;6.05;;;-4.50;99.90;;;;;;4889314;29;20398;-65
2024/01/11 02:22:13;;;;;;;11.27;5.97;;;-4.50;99.90;;;;;;4889572;29;20028;-65
2024/01/11 02:24:39;;;;;;;10.85;5.57;;;-4.50;99.90;;;;;;4891319;29;20025;-65
2024/01/11 02:27:05;;;;;;;6.15;4.35;;;-4.50;99.90;;;;;;4888023;29;20032;-64
2024/01/11 02:29:31;;;;;;;24.58;5.97;;;-4.50;99.90;;;;;;4902615;29;20032;-65
2024/01/11 02:31:59;;;;;;;6.75;5.47;;;-4.40;99.90;;;;;;4890677;29;20165;-65
2024/01/11 02:34:27;;;;;;;15.63;7.00;;;-4.40;99.90;;;;;;4885797;29;20789;-64
2024/01/11 02:36:54;;;;;;;15.15;6.93;;;-4.40;99.90;;;;;;4890457;29;20047;-65
2024/01/11 02:39:22;;;;;;;13.30;4.95;;;-4.40;99.90;;;;;;4888343;29;20056;-65
2024/01/11 02:41:50;;;;;;;11.48;4.57;;;-4.50;99.90;;;;;;4890362;29;20024;-64
2024/01/11 02:44:16;;;;;;;10.25;5.38;;;-4.50;99.90;;;;;;4891049;29;20052;-64
2024/01/11 02:46:41;;;;;;;16.40;6.72;;;-4.50;99.90;;;;;;4889880;29;20033;-65
2024/01/11 02:49:07;;;;;;;7.25;5.80;;;-4.50;99.90;;;;;;4892143;29;20040;-64
2024/01/11 02:51:33;;;;;;;14.52;6.60;;;-4.50;99.90;;;;;;4891031;29;20513;-65
2024/01/11 02:53:59;;;;;;;13.10;6.95;;;-4.60;99.90;;;;;;4888160;29;20071;-64
2024/01/11 02:56:25;;;;;;;19.27;7.13;;;-4.60;99.90;;;;;;4889558;29;20043;-65
2024/01/11 02:58:50;;;;;;;11.55;5.68;;;-4.60;99.90;;;;;;4879920;29;20063;-65
2024/01/11 03:01:16;;;;;;;15.63;6.40;;;-4.60;99.90;;;;;;4893143;29;20025;-65
2024/01/11 03:03:42;;;;;;;7.63;5.40;;;-4.60;99.90;;;;;;4880032;29;20028;-64
2024/01/11 03:06:08;;;;;;;9.25;5.82;;;-4.60;99.90;;;;;;4891030;29;20497;-65
2024/01/11 03:08:33;;;;;;;13.00;7.03;;;-4.70;99.90;;;;;;4894239;29;20477;-65
2024/01/11 03:10:59;;;;;;;12.02;7.35;;;-4.60;99.90;;;;;;4886105;29;20365;-64
2024/01/11 03:13:25;;;;;;;19.67;7.90;;;-4.60;99.90;;;;;;4893902;29;20087;-65
2024/01/11 03:15:51;;;;;;;12.90;5.55;;;-4.60;99.90;;;;;;4889608;29;20044;-65
2024/01/11 03:18:17;;;;;;;14.60;5.40;;;-4.60;99.90;;;;;;4891143;29;20033;-65
2024/01/11 03:20:42;;;;;;;7.57;4.90;;;-4.60;99.90;;;;;;4890187;29;20047;-65
2024/01/11 03:23:08;;;;;;;9.10;5.35;;;-4.70;99.90;;;;;;4891282;29;20513;-65
2024/01/11 03:25:34;;;;;;;6.18;4.38;;;-4.70;99.90;;;;;;4889677;29;20385;-65
2024/01/11 03:28:00;;;;;;;7.03;5.13;;;-4.70;99.90;;;;;;4891449;29;20045;-65
2024/01/11 03:30:26;;;;;;;31.35;7.40;;;-4.70;99.90;;;;;;4887162;29;20108;-65
2024/01/11 03:32:52;;;;;;;19.45;7.35;;;-4.80;99.90;;;;;;4887740;29;20047;-65
2024/01/11 03:35:18;;;;;;;14.05;5.45;;;-4.70;99.90;;;;;;4888410;29;20096;-65
2024/01/11 03:37:44;;;;;;;14.68;6.47;;;-4.70;99.90;;;;;;4891560;29;20357;-64
2024/01/11 03:40:11;;;;;;;10.82;5.35;;;-4.70;99.90;;;;;;4890455;29;20087;-64
2024/01/11 03:42:36;;;;;;;16.15;5.95;;;-4.70;99.90;;;;;;4875591;29;20430;-64
2024/01/11 03:45:04;;;;;;;12.70;6.22;;;-4.70;99.90;;;;;;4890077;29;20045;-64
2024/01/11 03:47:30;;;;;;;10.10;5.82;;;-4.70;99.90;;;;;;4892246;29;20028;-64
2024/01/11 03:49:55;;;;;;;9.45;6.32;;;-4.70;99.90;;;;;;4891716;29;20025;-64
2024/01/11 03:52:21;;;;;;;7.55;4.45;;;-4.60;99.90;;;;;;4904857;29;20028;-64
2024/01/11 03:54:47;;;;;;;21.77;6.88;;;-4.60;99.90;;;;;;4887800;29;20081;-65
2024/01/11 03:57:13;;;;;;;9.73;4.32;;;-4.70;99.90;;;;;;4890210;29;20037;-65
2024/01/11 03:59:40;;;;;;;22.63;9.23;;;-4.70;99.90;;;;;;4888609;29;20028;-64
2024/01/11 04:02:09;;;;;;;11.20;6.28;;;-4.60;99.90;;;;;;4891154;29;20028;-65
2024/01/11 04:04:34;;;;;;;9.68;6.75;;;-4.60;99.90;;;;;;4884684;29;20095;-64
2024/01/11 04:07:00;;;;;;;20.80;6.28;;;-4.60;99.90;;;;;;4887216;29;20494;-64
2024/01/11 04:09:26;;;;;;;13.40;8.32;;;-4.70;99.90;;;;;;4890427;29;20525;-64
2024/01/11 04:11:52;;;;;;;13.93;6.53;;;-4.70;99.90;;;;;;4889991;29;20145;-64
2024/01/11 04:14:17;;;;;;;8.45;5.50;;;-4.80;99.90;;;;;;4890774;29;20037;-64
2024/01/11 04:16:44;;;;;;;12.88;5.72;;;-4.80;99.90;;;;;;4887122;29;20029;-64
2024/01/11 04:19:10;;;;;;;13.60;6.18;;;-4.80;99.90;;;;;;4886031;29;20041;-65
2024/01/11 04:21:39;;;;;;;25.30;5.97;;;-4.80;99.90;;;;;;4886048;29;20040;-65
2024/01/11 04:24:09;;;;;;;8.80;6.93;;;-4.90;99.90;;;;;;4887360;29;20116;-64
2024/01/11 04:26:34;;;;;;;15.65;7.55;;;-4.90;99.90;;;;;;4886720;29;20025;-64
2024/01/11 04:29:00;;;;;;;18.67;5.00;;;-4.90;99.90;;;;;;4888636;29;20132;-65
2024/01/11 04:31:27;;;;;;;15.32;6.32;;;-4.90;99.90;;;;;;4886644;29;20036;-65
2024/01/11 04:33:53;;;;;;;11.65;7.55;;;-4.90;99.90;;;;;;4887190;29;20395;-64
2024/01/11 04:36:20;;;;;;;10.18;6.32;;;-5.00;99.90;;;;;;4890225;29;20191;-65
2024/01/11 04:38:45;;;;;;;30.55;8.13;;;-4.90;99.90;;;;;;4890203;29;20564;-64
2024/01/11 04:41:13;;;;;;;13.35;6.90;;;-5.00;99.90;;;;;;4884005;29;20108;-64
2024/01/11 04:43:43;;;;;;;6.85;4.75;;;-5.00;99.90;;;;;;4890130;29;20053;-64
2024/01/11 04:46:22;;;;;;;13.23;8.10;;;-5.00;99.90;;;;;;4882824;29;20056;-65
2024/01/11 04:48:49;;;;;;;17.85;6.78;;;-5.00;99.90;;;;;;4884365;29;20204;-64
2024/01/11 04:51:17;;;;;;;11.82;5.32;;;-5.00;99.90;;;;;;4884532;29;20036;-65
2024/01/11 04:53:45;;;;;;;11.50;6.65;;;-5.00;99.90;;;;;;4885991;29;20043;-65
2024/01/11 04:56:14;;;;;;;6.43;5.60;;;-5.10;99.90;;;;;;4892121;29;20040;-65
2024/01/11 04:58:42;;;;;;;12.18;5.13;;;-5.10;99.90;;;;;;4889524;29;20069;-64
2024/01/11 05:01:16;;;;;;;10.63;5.78;;;-5.10;99.90;;;;;;4893405;29;20036;-63
2024/01/11 05:03:44;;;;;;;25.42;5.93;;;-5.20;99.90;;;;;;4894006;29;20021;-64
2024/01/11 05:06:19;;;;;;;8.38;4.47;;;-5.20;99.90;;;;;;4890907;29;20434;-66
2024/01/11 05:08:46;;;;;;;12.68;5.97;;;-5.30;99.90;;;;;;4890193;29;20051;-66
2024/01/11 05:11:20;;;;;;;7.47;5.63;;;-5.20;99.90;;;;;;4889772;29;20037;-65
2024/01/11 05:13:47;;;;;;;10.93;6.40;;;-5.30;99.90;;;;;;4891690;29;20446;-65
2024/01/11 05:16:29;;;;;;;11.80;4.95;;;-5.30;99.90;;;;;;4890499;29;20044;-65
2024/01/11 05:18:56;;;;;;;;;;;-5.30;99.90;;;;;;4892495;29;20084;-66
2024/01/11 05:21:22;;;;;;;4.90;3.28;;;-5.20;99.90;;;;;;4893528;29;19915;-65
2024/01/11 05:23:49;;;;;;;19.35;7.47;;;-5.20;99.90;;;;;;4890333;29;20032;-65
2024/01/11 05:26:16;;;;;;;4.38;3.97;;;-5.20;99.90;;;;;;4878936;29;20028;-65
2024/01/11 05:28:42;;;;;;;7.90;5.35;;;-5.30;99.90;;;;;;4891359;29;20431;-65
2024/01/11 05:31:10;;;;;;;13.50;7.63;;;-5.20;99.90;;;;;;4894705;29;20045;-65
2024/01/11 05:33:37;;;;;;;12.55;7.57;;;-5.20;99.90;;;;;;4888770;29;20028;-65
2024/01/11 05:36:03;;;;;;;15.27;7.32;;;-5.30;99.90;;;;;;4890398;29;20108;-65
2024/01/11 05:38:29;;;;;;;8.98;5.15;;;-5.30;99.90;;;;;;4874062;29;20025;-65
2024/01/11 05:40:55;;;;;;;11.23;5.28;;;-5.30;99.90;;;;;;4894155;29;20024;-66
2024/01/11 05:43:23;;;;;;;8.48;6.22;;;-5.30;99.90;;;;;;4893577;29;20124;-66
2024/01/11 05:45:50;;;;;;;13.35;7.97;;;-5.30;99.90;;;;;;4892344;29;20048;-65
2024/01/11 05:48:16;;;;;;;14.75;7.88;;;-5.30;99.90;;;;;;4892389;29;20033;-65
2024/01/11 05:50:46;;;;;;;11.98;5.38;;;-5.30;99.90;;;;;;4890555;29;20036;-66
2024/01/11 05:53:12;;;;;;;13.05;6.55;;;-5.40;99.90;;;;;;4893927;29;20112;-66
2024/01/11 05:55:39;;;;;;;12.57;6.45;;;-5.30;99.90;;;;;;4891606;29;20032;-66
2024/01/11 05:58:05;;;;;;;13.90;9.00;;;-5.40;99.90;;;;;;4891823;29;20489;-65
2024/01/11 06:00:31;;;;;;;13.15;7.43;;;-5.30;99.90;;;;;;4891186;29;20389;-65
2024/01/11 06:02:57;;;;;;;16.10;7.85;;;-5.30;99.90;;;;;;4890431;29;20025;-64
2024/01/11 06:05:22;;;;;;;6.57;4.97;;;-5.40;99.90;;;;;;4889816;29;20066;-64
2024/01/11 06:07:48;;;;;;;9.70;5.97;;;-5.40;99.90;;;;;;4892935;29;20033;-65
2024/01/11 06:10:17;;;;;;;13.30;7.30;;;-5.40;99.90;;;;;;4896096;29;20093;-65
2024/01/11 06:12:43;;;;;;;17.98;8.18;;;-5.30;99.90;;;;;;4897284;29;20551;-64
2024/01/11 06:15:09;;;;;;;12.93;7.32;;;-5.40;99.90;;;;;;4896213;29;20036;-65
2024/01/11 06:17:36;;;;;;;9.35;6.30;;;-5.40;99.90;;;;;;4896343;29;20064;-65
2024/01/11 06:20:02;;;;;;;9.27;6.70;;;-5.40;99.90;;;;;;4898036;29;20723;-67
2024/01/11 06:22:27;;;;;;;15.25;7.63;;;-5.40;99.90;;;;;;4893560;29;20033;-65
2024/01/11 06:24:53;;;;;;;18.42;5.68;;;-5.40;99.90;;;;;;4897790;29;20032;-65
2024/01/11 06:27:20;;;;;;;15.00;5.85;;;-5.50;99.90;;;;;;4888348;29;20045;-65
2024/01/11 06:29:45;;;;;;;18.02;7.43;;;-5.50;99.90;;;;;;4893036;29;20036;-65
2024/01/11 06:32:13;;;;;;;14.88;7.50;;;-5.50;99.90;;;;;;4892339;29;20145;-65
2024/01/11 06:34:41;;;;;;;11.40;5.85;;;-5.50;99.90;;;;;;4896392;29;20470;-65
2024/01/11 06:37:07;;;;;;;11.43;5.70;;;-5.50;99.90;;;;;;4890801;29;20040;-65
2024/01/11 06:39:33;;;;;;;12.25;8.23;;;-5.50;99.90;;;;;;4897422;29;20033;-65
2024/01/11 06:41:59;;;;;;;8.43;3.97;;;-5.50;99.90;;;;;;4895957;29;20761;-65
2024/01/11 06:44:24;;;;;;;11.00;5.78;;;-5.50;99.90;;;;;;4894599;29;20061;-65
2024/01/11 06:46:50;;;;;;;10.23;7.13;;;-5.50;99.90;;;;;;4886472;29;20029;-63
2024/01/11 06:49:16;;;;;;;17.75;8.13;;;-5.50;99.90;;;;;;4894061;29;20032;-63
2024/01/11 06:51:42;;;;;;;36.08;7.90;;;-5.50;99.90;;;;;;4896329;29;20040;-64
2024/01/11 06:54:07;;;;;;;11.85;6.60;;;-5.50;99.90;;;;;;4911874;29;20113;-64
2024/01/11 06:56:33;;;;;;;6.13;5.07;;;-5.40;99.90;;;;;;4895253;29;20056;-64
2024/01/11 06:58:59;;;;;;;14.80;6.55;;;-5.40;99.90;;;;;;4889998;29;20040;-63
2024/01/11 07:01:25;;;;;;;14.38;5.65;;;-5.40;99.90;;;;;;4894618;29;20457;-63
2024/01/11 07:03:51;;;;;;;8.25;5.40;;;-5.40;99.90;;;;;;4895613;29;20386;-63
2024/01/11 07:06:17;;;;;;;17.98;7.82;;;-5.30;99.90;;;;;;4896387;29;20401;-63
2024/01/11 07:08:43;;;;;;;27.73;8.05;;;-5.40;99.90;;;;;;4896906;29;20073;-52
2024/01/11 07:11:10;;;;;;;16.50;6.95;;;-5.30;99.90;;;;;;4896653;29;20059;-44
2024/01/11 07:13:36;;;;;;;13.88;6.93;;;-4.50;99.90;;;;;;4900286;29;20036;-47
2024/01/11 07:16:03;;;;;;;16.60;8.35;;;-3.40;99.90;;;;;;4884688;29;20443;-51
2024/01/11 07:18:29;;;;;;;16.38;7.82;;;-2.70;99.90;;;;;;4895931;29;20048;-63
2024/01/11 07:20:58;;;;;;;13.90;8.35;;;-3.20;99.90;;;;;;4888242;29;20374;-63
2024/01/11 07:23:24;;;;;;;17.08;5.85;;;-3.80;99.90;;;;;;4896704;29;20060;-63
2024/01/11 07:25:50;;;;;;;14.93;8.63;;;-4.10;99.90;;;;;;4910063;29;20112;-63
2024/01/11 07:28:17;;;;;;;16.92;8.68;;;-4.40;99.90;;;;;;4883873;29;20054;-63
2024/01/11 07:30:43;;;;;;;28.73;9.80;;;-4.70;99.90;;;;;;4889794;29;20397;-62
2024/01/11 07:33:09;;;;;;;10.73;6.53;;;-4.90;99.90;;;;;;4886037;29;20032;-62
2024/01/11 07:35:35;;;;;;;10.73;7.82;;;-5.00;99.90;;;;;;4909780;29;20402;-62
2024/01/11 07:38:01;;;;;;;20.55;10.77;;;-5.00;99.90;;;;;;4890314;29;20040;-63
2024/01/11 07:40:26;;;;;;;18.83;8.80;;;-5.10;99.90;;;;;;4883477;29;20032;-62
2024/01/11 07:42:53;;;;;;;14.10;7.38;;;-5.10;99.90;;;;;;4884155;29;20020;-62
2024/01/11 07:45:19;;;;;;;12.60;9.57;;;-5.20;99.90;;;;;;4887078;29;20025;-63
2024/01/11 07:47:44;;;;;;;12.00;7.07;;;-5.20;99.90;;;;;;4894655;29;20055;-63
2024/01/11 07:50:10;;;;;;;20.30;8.20;;;-5.10;99.90;;;;;;4893963;29;20028;-62
2024/01/11 07:52:36;;;;;;;10.93;7.45;;;-5.20;99.90;;;;;;4895698;29;20031;-63
2024/01/11 07:55:07;;;;;;;12.57;8.27;;;-5.20;99.90;;;;;;4895280;29;20024;-63
2024/01/11 07:57:34;;;;;;;12.60;8.73;;;-5.20;99.90;;;;;;4889709;29;20036;-63
2024/01/11 08:00:00;;;;;;;8.98;7.18;;;-5.20;99.90;;;;;;4894992;29;20434;-62
2024/01/11 08:02:27;;;;;;;12.02;8.20;;;-5.20;99.90;;;;;;4892275;29;20045;-63
2024/01/11 08:04:52;;;;;;;10.05;7.78;;;-5.20;99.90;;;;;;4904136;29;20516;-62
2024/01/11 08:07:18;;;;;;;8.18;5.10;;;-5.20;99.90;;;;;;4890616;29;20056;-62
2024/01/11 08:09:47;;;;;;;18.20;6.63;;;-5.20;99.90;;;;;;4883476;29;20096;-63
2024/01/11 08:12:19;;;;;;;22.48;9.98;;;-5.20;99.90;;;;;;4881726;29;20036;-63
2024/01/11 08:14:46;;;;;;;;;;;-5.10;99.90;;;;;;4899657;29;20486;-63
2024/01/11 08:17:16;;;;;;;15.25;6.22;;;-5.10;99.90;;;;;;4888478;29;19975;-60
2024/01/11 08:19:42;;;;;;;20.50;9.40;;;-5.10;99.90;;;;;;4888714;29;20032;-63
2024/01/11 08:22:09;;;;;;;14.45;9.38;;;-5.10;99.90;;;;;;4885173;29;20039;-65
2024/01/11 08:24:35;;;;;;;20.90;7.63;;;-5.10;99.90;;;;;;4895735;29;20032;-63
2024/01/11 08:27:01;;;;;;;14.10;9.13;;;-5.00;99.90;;;;;;4882315;29;20029;-63
2024/01/11 08:29:27;;;;;;;20.58;10.48;;;-5.00;99.90;;;;;;4892462;29;20036;-63
2024/01/11 08:31:54;;;;;;;13.00;8.02;;;-4.90;99.90;;;;;;4894203;29;20140;-63
2024/01/11 08:34:21;;;;;;;10.93;7.20;;;-4.90;99.90;;;;;;4896683;29;20041;-63
2024/01/11 08:36:47;;;;;;;19.27;8.90;;;-4.80;99.90;;;;;;4899100;29;20029;-62
2024/01/11 08:39:14;;;;;;;14.98;9.13;;;-4.70;99.90;;;;;;4899727;29;20413;-63
2024/01/11 08:41:40;;;;;;;26.50;7.65;;;-4.60;99.90;;;;;;4891035;29;20020;-63
2024/01/11 08:44:06;;;;;;;15.70;9.02;;;-4.50;99.90;;;;;;4897619;29;20043;-63
2024/01/11 08:46:35;;;;;;;9.77;6.55;;;-4.50;99.90;;;;;;4894226;29;20088;-63
2024/01/11 08:49:04;;;;;;;22.45;9.48;;;-4.40;99.90;;;;;;4893513;29;20480;-62
2024/01/11 08:51:32;;;;;;;21.85;9.10;;;-4.30;99.90;;;;;;4892742;29;20128;-62
2024/01/11 08:53:58;;;;;;;15.70;10.32;;;-4.30;99.90;;;;;;4893225;29;20041;-62
2024/01/11 08:56:24;;;;;;;22.63;8.40;;;-4.20;99.90;;;;;;4892640;29;20060;-63
2024/01/11 08:58:49;;;;;;;15.98;9.82;;;-4.20;99.90;;;;;;4904401;29;20461;-63
2024/01/11 09:01:16;;;;;;;20.90;11.43;;;-4.00;99.90;;;;;;4883846;29;20053;-62
2024/01/11 09:03:41;;;;;;;14.25;7.93;;;-3.90;99.90;;;;;;4902315;29;20487;-63
2024/01/11 09:06:07;;;;;;;21.95;8.57;;;-3.90;99.90;;;;;;4897746;29;20041;-63
2024/01/11 09:08:33;;;;;;;17.80;9.40;;;-3.90;99.90;;;;;;4902811;29;20043;-62
2024/01/11 09:10:59;;;;;;;27.85;9.77;;;-3.80;99.90;;;;;;4912679;29;20064;-63
2024/01/11 09:13:31;;;;;;;26.58;10.40;;;-3.70;99.90;;;;;;4904638;29;20041;-62
2024/01/11 09:15:56;;;;;;;19.77;9.57;;;-3.70;99.90;;;;;;4893562;29;20036;-64
2024/01/11 09:18:23;;;;;;;8.07;6.43;;;-3.60;99.90;;;;;;4906706;29;20393;-63
2024/01/11 09:20:48;;;;;;;29.17;11.40;;;-3.50;99.90;;;;;;4896949;29;20028;-63
2024/01/11 09:23:15;;;;;;;17.73;8.35;;;-3.30;99.90;;;;;;4909560;29;20396;-63
2024/01/11 09:25:41;;;;;;;17.58;9.43;;;-3.20;99.90;;;;;;4905027;29;20028;-63
2024/01/11 09:28:07;;;;;;;26.10;10.48;;;-3.10;99.90;;;;;;4907074;29;20027;-62
2024/01/11 09:30:33;;;;;;;18.35;9.32;;;-3.00;99.90;;;;;;4886120;29;20033;-63
2024/01/11 09:32:59;;;;;;;33.88;11.60;;;-2.90;99.90;;;;;;4903429;29;20495;-63
2024/01/11 09:35:25;;;;;;;15.88;7.70;;;-2.80;99.90;;;;;;4895536;29;20031;-62
2024/01/11 09:37:51;;;;;;;19.73;9.07;;;-2.70;99.90;;;;;;4899234;29;20036;-63
2024/01/11 09:40:18;;;;;;;11.73;9.07;;;-2.70;99.90;;;;;;4897061;29;20028;-62
2024/01/11 09:42:45;;;;;;;25.25;10.57;;;-2.50;99.90;;;;;;4891757;29;20502;-63
2024/01/11 09:45:15;;;;;;;21.95;8.10;;;-2.40;99.90;;;;;;4895161;29;20039;-63
2024/01/11 09:47:44;;;;;;;25.40;9.80;;;-2.30;99.90;;;;;;4889675;29;20029;-63
2024/01/11 09:50:10;;;;;;;23.63;10.05;;;-2.20;99.90;;;;;;4899973;29;20105;-63
2024/01/11 09:52:38;;;;;;;19.30;10.55;;;-2.10;99.90;;;;;;4898451;29;20037;-63
2024/01/11 09:55:04;;;;;;;30.65;9.80;;;-2.00;99.90;;;;;;4900960;29;20028;-63
2024/01/11 09:57:34;;;;;;;26.25;11.43;;;-1.90;99.90;;;;;;4877231;29;20032;-61
2024/01/11 10:00:07;;;;;;;14.67;8.00;;;-1.70;99.90;;;;;;4901261;29;20040;-65
2024/01/11 10:02:33;;;;;;;35.50;11.18;;;-1.40;99.90;;;;;;4894045;29;20029;-64
2024/01/11 10:05:01;;;;;;;17.42;8.50;;;0.30;99.90;;;;;;4899945;29;20501;-64
2024/01/11 10:07:29;;;;;;;23.85;9.18;;;2.70;99.90;;;;;;4893777;29;20375;-62
2024/01/11 10:09:58;;;;;;;37.20;11.40;;;4.80;96.10;;;;;;4883598;29;20041;-63
2024/01/11 10:12:25;;;;;;;27.90;9.63;;;6.10;87.40;;;;;;4889371;29;20040;-64
2024/01/11 10:14:54;;;;;;;27.13;11.40;;;6.80;78.60;;;;;;4893632;29;20085;-64
2024/01/11 10:17:19;;;;;;;29.00;11.48;;;7.20;80.30;;;;;;4900278;29;20047;-64
2024/01/11 10:19:46;;;;;;;28.17;11.05;;;8.40;74.10;;;;;;4894559;29;20044;-63
2024/01/11 10:22:16;;;;;;;30.50;12.23;;;9.10;71.10;;;;;;4892199;29;20481;-63
2024/01/11 10:24:43;;;;;;;24.70;10.20;;;10.00;67.30;;;;;;4901499;29;20591;-64
2024/01/11 10:27:09;;;;;;;33.20;12.80;;;10.70;64.50;;;;;;4902487;29;20043;-63
2024/01/11 10:29:37;;;;;;;31.45;10.77;;;8.40;64.70;;;;;;4899285;29;20123;-64
2024/01/11 10:32:06;;;;;;;26.75;11.43;;;8.10;69.70;;;;;;4900817;29;20034;-63
2024/01/11 10:34:33;;;;;;;26.42;11.52;;;7.40;65.00;;;;;;4898765;29;20557;-64
2024/01/11 10:36:59;;;;;;;27.42;12.20;;;5.90;69.90;;;;;;4897004;29;20032;-65
2024/01/11 10:39:27;;;;;;;33.83;13.00;;;6.60;76.00;;;;;;4897063;29;20044;-64
2024/01/11 10:42:05;;;;;;;32.63;10.73;;;7.60;67.30;;;;;;4879565;29;20484;-64
2024/01/11 10:44:34;;;;;;;33.25;13.00;;;8.50;67.10;;;;;;4892490;29;20101;-64
2024/01/11 10:47:06;;;;;;;28.42;11.77;;;10.90;63.90;;;;;;4898224;29;20099;-64
2024/01/11 10:49:33;;;;;;;31.42;10.88;;;10.90;61.00;;;;;;4892736;29;20112;-64
2024/01/11 10:52:02;;;;;;;32.47;12.32;;;12.60;57.20;;;;;;4897536;29;20465;-64
2024/01/11 10:54:30;;;;;;;29.85;11.35;;;12.70;56.60;;;;;;4897422;29;20055;-64
2024/01/11 10:56:59;;;;;;;35.55;12.15;;;13.00;55.70;;;;;;4897779;29;20533;-64
2024/01/11 10:59:27;;;;;;;32.15;12.45;;;14.70;52.60;;;;;;4898840;29;20378;-64
2024/01/11 11:02:04;;;;;;;29.73;12.40;;;13.80;51.90;;;;;;4901107;29;20035;-64
2024/01/11 11:04:32;;;;;;;31.52;11.75;;;12.20;53.70;;;;;;4913418;29;20127;-64
2024/01/11 11:07:02;;;;;;;33.40;14.05;;;12.90;53.40;;;;;;4899492;29;20087;-63
2024/01/11 11:09:30;;;;;;;27.52;11.18;;;13.80;52.30;;;;;;4901316;29;20028;-64
2024/01/11 11:11:59;;;;;;;36.38;13.10;;;13.50;51.80;;;;;;4900855;29;20548;-63
2024/01/11 11:14:25;;;;;;;34.55;12.98;;;13.40;52.10;;;;;;4896824;29;20025;-65
2024/01/11 11:16:52;;;;;;;29.67;11.95;;;13.60;52.20;;;;;;4886158;29;20041;-64
2024/01/11 11:19:20;;;;;;;28.20;12.38;;;13.50;52.40;;;;;;4898354;29;20032;-65
2024/01/11 11:21:48;;;;;;;37.45;14.02;;;13.90;50.80;;;;;;4889637;29;20039;-65
2024/01/11 11:24:16;;;;;;;30.10;12.63;;;13.50;51.20;;;;;;4880802;29;20054;-64
2024/01/11 11:26:42;;;;;;;29.45;13.20;;;13.50;51.60;;;;;;4893227;29;20039;-64
2024/01/11 11:29:09;;;;;;;29.10;12.15;;;13.70;51.30;;;;;;4908498;29;20040;-65
2024/01/11 11:31:43;;;;;;;33.95;13.07;;;11.80;51.80;;;;;;4894204;29;20032;-65
2024/01/11 11:34:12;;;;;;;28.85;12.48;;;13.50;51.00;;;;;;4895944;29;20063;-65
2024/01/11 11:36:43;;;;;;;30.48;12.73;;;13.00;51.40;;;;;;4893910;29;20036;-65
2024/01/11 11:39:13;;;;;;;25.45;11.15;;;13.90;50.50;;;;;;4894298;29;20035;-64
2024/01/11 11:41:42;;;;;;;37.75;13.27;;;13.70;48.70;;;;;;4895391;29;20118;-65
2024/01/11 11:44:12;;;;;;;32.92;12.40;;;12.70;50.60;;;;;;4900490;29;20043;-64
2024/01/11 11:46:37;;;;;;;33.67;12.57;;;13.50;49.90;;;;;;4894358;29;20039;-65
2024/01/11 11:49:03;;;;;;;31.83;13.68;;;13.20;50.30;;;;;;4894588;29;20024;-65
2024/01/11 11:51:29;;;;;;;27.55;11.00;;;11.10;50.60;;;;;;4892501;29;20045;-65
2024/01/11 11:53:55;;;;;;;23.50;10.85;;;12.10;53.10;;;;;;4890534;29;20029;-65
2024/01/11 11:56:22;;;;;;;32.58;12.02;;;12.70;51.20;;;;;;4884214;29;20040;-65
2024/01/11 11:58:52;;;;;;;28.67;12.73;;;13.00;51.00;;;;;;4887274;29;20060;-64
2024/01/11 12:01:17;;;;;;;38.85;13.82;;;12.70;50.90;;;;;;4887536;29;20063;-64
2024/01/11 12:03:51;;;;;;;29.50;10.93;;;11.90;52.80;;;;;;4891084;29;20124;-64
2024/01/11 12:06:20;;;;;;;24.65;10.93;;;13.20;50.90;;;;;;4899320;29;20029;-64
2024/01/11 12:08:47;;;;;;;29.27;11.68;;;14.10;49.70;;;;;;4897825;29;20061;-64
2024/01/11 12:11:17;;;;;;;34.38;11.82;;;14.40;49.00;;;;;;4899158;29;20040;-65
2024/01/11 12:13:44;;;;;;;25.27;11.35;;;12.80;49.30;;;;;;4901088;29;20572;-65
2024/01/11 12:16:11;;;;;;;28.70;11.32;;;14.40;49.10;;;;;;4899737;29;20516;-64
2024/01/11 12:18:41;;;;;;;28.33;11.18;;;13.50;49.50;;;;;;4890857;29;20040;-65
2024/01/11 12:21:10;;;;;;;32.25;12.30;;;13.30;49.30;;;;;;4892102;29;20478;-64
2024/01/11 12:23:43;;;;;;;33.97;13.60;;;12.40;51.40;;;;;;4890383;29;20025;-64
2024/01/11 12:26:12;;;;;;;25.98;11.48;;;12.90;51.00;;;;;;4894080;29;20028;-64
2024/01/11 12:28:40;;;;;;;29.85;12.38;;;11.80;50.50;;;;;;4898056;29;20045;-65
2024/01/11 12:31:06;;;;;;;32.45;11.93;;;11.20;54.20;;;;;;4898317;29;20064;-65
2024/01/11 12:33:34;;;;;;;29.35;11.45;;;9.70;53.80;;;;;;4893478;29;20060;-64
2024/01/11 12:36:01;;;;;;;35.53;12.65;;;10.50;54.00;;;;;;4894145;29;20037;-64